Time;durP1;ratioP1;P1;durP2;ratioP2;P2;SDS_P1;SDS_P2;PMS_P1;PMS_P2;Temp;Humidity;BMP_temperature;BMP_pressure;BME280_temperature;BME280_humidity;BME280_pressure;Samples;Min_cycle;Max_cycle;Signal;HPM_P1;HPM_P2
2022/04/20 00:00:05;;;;;;;;;;;7.50;95.30;;;;;;5009791;28;20003;-75
2022/04/20 00:02:31;;;;;;;;;;;7.40;95.50;;;;;;5008986;28;19917;-75
2022/04/20 00:04:56;;;;;;;;;;;7.40;95.60;;;;;;5011065;28;19910;-75
2022/04/20 00:07:22;;;;;;;;;;;7.40;95.60;;;;;;5008580;28;19949;-75
2022/04/20 00:09:48;;;;;;;;;;;7.40;95.40;;;;;;5024474;23;19925;-73
2022/04/20 00:12:13;;;;;;;;;;;7.30;95.60;;;;;;5007409;28;20221;-73
2022/04/20 00:14:38;;;;;;;;;;;7.30;95.60;;;;;;5010739;28;20004;-73
2022/04/20 00:17:04;;;;;;;;;;;7.20;96.10;;;;;;5009608;28;19917;-73
2022/04/20 00:19:29;;;;;;;;;;;7.10;96.20;;;;;;5004082;28;19918;-73
2022/04/20 00:21:55;;;;;;;;;;;7.10;96.20;;;;;;4998680;28;20004;-73
2022/04/20 00:24:20;;;;;;;;;;;7.10;96.60;;;;;;4998616;28;19917;-73
2022/04/20 00:26:46;;;;;;;;;;;7.10;96.60;;;;;;5000200;28;19944;-73
2022/04/20 00:29:11;;;;;;;;;;;7.10;96.70;;;;;;5000152;28;19919;-73
2022/04/20 00:31:37;;;;;;;;;;;7.10;96.50;;;;;;4998866;28;19917;-73
2022/04/20 00:34:02;;;;;;;;;;;7.10;96.40;;;;;;4999651;28;20360;-73
2022/04/20 00:36:28;;;;;;;;;;;7.10;96.20;;;;;;4998865;28;19924;-73
2022/04/20 00:38:53;;;;;;;;;;;7.10;96.20;;;;;;4998688;28;20372;-73
2022/04/20 00:41:19;;;;;;;;;;;7.10;96.30;;;;;;4998287;28;19922;-73
2022/04/20 00:43:45;;;;;;;;;;;7.00;96.60;;;;;;4999949;28;20000;-73
2022/04/20 00:46:11;;;;;;;;;;;7.00;96.90;;;;;;4996922;28;20497;-73
2022/04/20 00:48:38;;;;;;;;;;;7.00;96.60;;;;;;4999748;28;19932;-73
2022/04/20 00:51:03;;;;;;;;;;;6.90;96.60;;;;;;4998145;28;20052;-73
2022/04/20 00:53:29;;;;;;;;;;;7.00;96.70;;;;;;4997855;28;20000;-73
2022/04/20 00:55:54;;;;;;;;;;;6.90;96.40;;;;;;4996908;28;19918;-73
2022/04/20 00:58:20;;;;;;;;;;;7.00;96.40;;;;;;4998460;28;20251;-73
2022/04/20 01:00:45;;;;;;;;;;;6.90;96.40;;;;;;4998163;28;19925;-73
2022/04/20 01:03:11;;;;;;;;;;;6.90;96.50;;;;;;4993141;28;20410;-73
2022/04/20 01:05:36;;;;;;;;;;;6.90;96.60;;;;;;5000936;28;19935;-73
2022/04/20 01:08:02;;;;;;;;;;;6.90;96.60;;;;;;4998165;28;20333;-73
2022/04/20 01:10:27;;;;;;;;;;;6.80;96.50;;;;;;4999917;28;20301;-73
2022/04/20 01:12:53;;;;;;;;;;;6.80;96.80;;;;;;4998355;28;20378;-73
2022/04/20 01:15:19;;;;;;;;;;;6.80;97.10;;;;;;4998473;28;19980;-73
2022/04/20 01:17:44;;;;;;;;;;;6.70;97.20;;;;;;4998945;28;19921;-73
2022/04/20 01:20:13;;;;;;;;;;;6.70;97.20;;;;;;4998401;28;19917;-72
2022/04/20 01:22:39;;;;;;;;;;;6.60;97.50;;;;;;4998349;28;19914;-73
2022/04/20 01:25:05;;;;;;;;;;;6.60;97.30;;;;;;4999033;28;20466;-72
2022/04/20 01:27:30;;;;;;;;;;;6.60;97.10;;;;;;4996424;28;20008;-72
2022/04/20 01:29:56;;;;;;;;;;;6.60;97.20;;;;;;4999143;28;19918;-72
2022/04/20 01:32:21;;;;;;;;;;;6.60;97.20;;;;;;4998015;28;19926;-72
2022/04/20 01:34:46;;;;;;;;;;;6.60;97.10;;;;;;4997425;28;20012;-72
2022/04/20 01:37:12;;;;;;;;;;;6.50;97.10;;;;;;4998566;28;20029;-72
2022/04/20 01:39:37;;;;;;;;;;;6.50;97.10;;;;;;4998856;28;20048;-72
2022/04/20 01:42:03;;;;;;;;;;;6.50;97.40;;;;;;4996834;28;19921;-72
2022/04/20 01:44:28;;;;;;;;;;;6.30;97.40;;;;;;4998337;28;19961;-72
2022/04/20 01:46:54;;;;;;;;;;;6.30;97.40;;;;;;4996607;28;19996;-73
2022/04/20 01:49:19;;;;;;;;;;;6.30;97.40;;;;;;4998414;28;20319;-72
2022/04/20 01:51:50;;;;;;;;;;;6.30;97.50;;;;;;4994528;28;20409;-73
2022/04/20 01:54:15;;;;;;;;;;;6.30;97.60;;;;;;4998501;28;19953;-72
2022/04/20 01:56:41;;;;;;;;;;;6.20;97.60;;;;;;4999713;28;19957;-72
2022/04/20 01:59:07;;;;;;;;;;;6.30;97.60;;;;;;4998556;28;20408;-73
2022/04/20 02:04:18;;;;;;;;;;;6.20;97.70;;;;;;4995438;28;20003;-73
2022/04/20 02:06:44;;;;;;;;;;;6.20;98.40;;;;;;4998303;28;19920;-72
2022/04/20 02:09:09;;;;;;;;;;;6.10;98.50;;;;;;4999774;28;19921;-72
2022/04/20 02:11:35;;;;;;;;;;;6.10;98.70;;;;;;4997737;28;19918;-72
2022/04/20 02:14:00;;;;;;;;;;;6.10;98.50;;;;;;4997023;28;19995;-72
2022/04/20 02:16:26;;;;;;;;;;;6.00;98.30;;;;;;4998376;28;19918;-72
2022/04/20 02:18:51;;;;;;;;;;;6.10;98.10;;;;;;4998368;28;20422;-73
2022/04/20 02:21:17;;;;;;;;;;;6.10;98.00;;;;;;4996375;28;19917;-72
2022/04/20 02:23:42;;;;;;;;;;;6.00;98.10;;;;;;4996232;28;19914;-72
2022/04/20 02:26:08;;;;;;;;;;;6.00;98.20;;;;;;4997281;28;20378;-73
2022/04/20 02:28:33;;;;;;;;;;;6.00;98.20;;;;;;4999473;28;19959;-72
2022/04/20 02:30:58;;;;;;;;;;;6.00;98.60;;;;;;4996864;28;19992;-72
2022/04/20 02:33:24;;;;;;;;;;;6.00;98.40;;;;;;4996337;28;19921;-72
2022/04/20 02:35:49;;;;;;;;;;;6.00;98.20;;;;;;4997795;28;19922;-72
2022/04/20 02:38:15;;;;;;;;;;;6.00;98.30;;;;;;4997372;28;20486;-73
2022/04/20 02:40:41;;;;;;;;;;;6.00;98.40;;;;;;4997638;28;20358;-73
2022/04/20 02:43:07;;;;;;;;;;;6.00;98.30;;;;;;4997445;28;19918;-72
2022/04/20 02:45:33;;;;;;;;;;;5.90;98.30;;;;;;4998189;28;19931;-72
2022/04/20 02:47:59;;;;;;;;;;;5.90;98.40;;;;;;4998350;28;19917;-72
2022/04/20 02:50:24;;;;;;;;;;;5.90;98.40;;;;;;4996663;28;19944;-72
2022/04/20 02:52:50;;;;;;;;;;;5.90;98.40;;;;;;4997656;28;20290;-72
2022/04/20 02:55:15;;;;;;;;;;;5.80;98.30;;;;;;4996192;28;19976;-73
2022/04/20 02:57:41;;;;;;;;;;;5.80;98.30;;;;;;4999145;28;19956;-72
2022/04/20 03:00:06;;;;;;;;;;;5.80;98.40;;;;;;4995725;28;19996;-72
2022/04/20 03:02:32;;;;;;;;;;;5.80;98.40;;;;;;4997688;28;19921;-72
2022/04/20 03:04:57;;;;;;;;;;;5.80;98.40;;;;;;4996277;28;20202;-72
2022/04/20 03:07:23;;;;;;;;;;;5.70;98.70;;;;;;4998576;28;19913;-72
2022/04/20 03:09:48;;;;;;;;;;;5.70;98.80;;;;;;4997791;28;20365;-72
2022/04/20 03:12:14;;;;;;;;;;;5.60;98.90;;;;;;4996534;28;19944;-72
2022/04/20 03:14:40;;;;;;;;;;;5.60;99.00;;;;;;4996106;28;20381;-72
2022/04/20 03:17:06;;;;;;;;;;;5.60;98.80;;;;;;4998356;28;20004;-72
2022/04/20 03:19:31;;;;;;;;;;;5.50;98.70;;;;;;4998214;28;19917;-72
2022/04/20 03:21:57;;;;;;;;;;;5.50;98.80;;;;;;4994751;28;20298;-72
2022/04/20 03:24:22;;;;;;;;;;;5.50;99.20;;;;;;4997980;28;19918;-72
2022/04/20 03:26:48;;;;;;;;;;;5.40;99.10;;;;;;4999074;28;20385;-72
2022/04/20 03:29:13;;;;;;;;;;;5.40;99.20;;;;;;4999611;28;19918;-72
2022/04/20 03:31:39;;;;;;;;;;;5.40;99.30;;;;;;4999287;28;20334;-72
2022/04/20 03:34:04;;;;;;;;;;;5.40;99.50;;;;;;5001424;28;19914;-72
2022/04/20 03:36:30;;;;;;;;;;;5.40;99.30;;;;;;5001133;28;19917;-72
2022/04/20 03:38:55;;;;;;;;;;;5.40;99.40;;;;;;5001818;28;19920;-72
2022/04/20 03:41:22;;;;;;;;;;;5.30;99.40;;;;;;5000131;28;19922;-72
2022/04/20 03:43:50;;;;;;;;;;;5.30;99.50;;;;;;5000232;28;20019;-72
2022/04/20 03:46:16;;;;;;;;;;;5.30;99.50;;;;;;4999576;28;19992;-73
2022/04/20 03:48:43;;;;;;;;;;;5.20;99.80;;;;;;5001206;28;20016;-72
2022/04/20 03:51:08;;;;;;;;;;;5.20;99.90;;;;;;4999064;28;20516;-72
2022/04/20 03:53:34;;;;;;;;;;;5.10;99.70;;;;;;5001227;28;19960;-72
2022/04/20 03:55:59;;;;;;;;;;;5.10;99.80;;;;;;5000912;28;19922;-72
2022/04/20 03:58:25;;;;;;;;;;;5.20;99.80;;;;;;5001611;28;19944;-72
2022/04/20 04:00:51;;;;;;;;;;;5.20;99.60;;;;;;4997411;28;19918;-73
2022/04/20 04:03:17;;;;;;;;;;;5.10;99.60;;;;;;4992683;28;19918;-73
2022/04/20 04:05:43;;;;;;;;;;;5.10;99.80;;;;;;4999430;28;19917;-73
2022/04/20 04:08:09;;;;;;;;;;;5.10;99.80;;;;;;5001633;28;19914;-73
2022/04/20 04:10:34;;;;;;;;;;;5.10;99.80;;;;;;4998619;28;19945;-73
2022/04/20 04:13:00;;;;;;;;;;;5.10;99.60;;;;;;5000284;28;19913;-73
2022/04/20 04:15:25;;;;;;;;;;;5.00;99.90;;;;;;4999800;28;19932;-73
2022/04/20 04:17:54;;;;;;;;;;;5.00;99.80;;;;;;5000281;28;20402;-73
2022/04/20 04:20:22;;;;;;;;;;;5.00;99.80;;;;;;4997407;28;19917;-73
2022/04/20 04:22:50;;;;;;;;;;;5.00;99.80;;;;;;4999951;28;19921;-74
2022/04/20 04:25:15;;;;;;;;;;;5.20;99.70;;;;;;4996961;28;19917;-73
2022/04/20 04:27:41;;;;;;;;;;;5.30;99.70;;;;;;5000531;28;20397;-73
2022/04/20 04:30:07;;;;;;;;;;;5.40;99.60;;;;;;4998868;28;20366;-74
2022/04/20 04:32:33;;;;;;;;;;;5.40;99.40;;;;;;4999998;28;20318;-74
2022/04/20 04:34:58;;;;;;;;;;;5.50;99.40;;;;;;4999171;28;19929;-65
2022/04/20 04:37:24;;;;;;;;;;;5.80;99.50;;;;;;4998096;28;19915;-68
2022/04/20 04:39:49;;;;;;;;;;;6.70;99.50;;;;;;4990380;28;20062;-69
2022/04/20 04:42:14;;;;;;;;;;;7.30;98.70;;;;;;4992788;28;19928;-68
2022/04/20 04:44:40;;;;;;;;;;;7.50;97.90;;;;;;4997650;28;19968;-68
2022/04/20 04:49:50;;;;;;;;;;;7.70;97.20;;;;;;4999338;28;20015;-68
2022/04/20 04:52:15;;;;;;;;;;;7.70;96.20;;;;;;4993784;28;20005;-68
2022/04/20 04:54:41;;;;;;;;;;;8.00;96.60;;;;;;4993724;28;19972;-67
2022/04/20 04:57:07;;;;;;;;;;;8.30;95.30;;;;;;4996151;28;19949;-67
2022/04/20 04:59:34;;;;;;;;;;;8.50;94.70;;;;;;4999174;28;20502;-69
2022/04/20 05:01:59;;;;;;;;;;;8.70;94.40;;;;;;4999242;28;19920;-68
2022/04/20 05:04:25;;;;;;;;;;;8.80;94.20;;;;;;4997066;28;19914;-68
2022/04/20 05:06:50;;;;;;;;;;;9.00;94.00;;;;;;4996892;28;20016;-68
2022/04/20 05:09:16;;;;;;;;;;;9.10;93.00;;;;;;4997345;28;20458;-68
2022/04/20 05:11:42;;;;;;;;;;;8.80;93.30;;;;;;4999370;28;20356;-69
2022/04/20 05:14:08;;;;;;;;;;;8.60;93.80;;;;;;4998419;28;19929;-68
2022/04/20 05:16:34;;;;;;;;;;;8.50;94.20;;;;;;4998885;28;19925;-69
2022/04/20 05:18:59;;;;;;;;;;;8.60;94.30;;;;;;4999121;28;19909;-70
2022/04/20 05:21:24;;;;;;;;;;;9.00;94.40;;;;;;4996632;28;20000;-69
2022/04/20 05:23:50;;;;;;;;;;;9.50;92.50;;;;;;4997789;28;19957;-69
2022/04/20 05:26:15;;;;;;;;;;;9.60;91.60;;;;;;4999390;28;19993;-69
2022/04/20 05:28:41;;;;;;;;;;;9.60;91.90;;;;;;4999611;28;19914;-70
2022/04/20 05:31:06;;;;;;;;;;;9.70;92.20;;;;;;4998659;28;20334;-69
2022/04/20 05:33:34;;;;;;;;;;;9.40;92.40;;;;;;4999577;28;20434;-69
2022/04/20 05:35:59;;;;;;;;;;;8.70;93.60;;;;;;4999386;28;20266;-69
2022/04/20 05:43:53;;;;;;;;;;;8.90;94.60;;;;;;5000296;28;19920;-70
2022/04/20 05:46:19;;;;;;;;;;;8.90;94.60;;;;;;5000257;28;19910;-69
2022/04/20 05:48:44;;;;;;;;;;;8.70;94.60;;;;;;4999805;28;19914;-70
2022/04/20 05:51:10;;;;;;;;;;;8.40;95.20;;;;;;4999624;28;20238;-70
2022/04/20 05:53:36;;;;;;;;;;;8.10;95.70;;;;;;5000283;28;19913;-69
2022/04/20 05:56:02;;;;;;;;;;;7.90;96.30;;;;;;4997172;28;19928;-70
2022/04/20 05:58:27;;;;;;;;;;;7.80;96.60;;;;;;4999530;28;20012;-69
2022/04/20 06:00:53;;;;;;;;;;;7.80;96.90;;;;;;5000086;28;19916;-69
2022/04/20 06:03:18;;;;;;;;;;;7.80;96.80;;;;;;4999952;28;19910;-69
2022/04/20 06:05:44;;;;;;;;;;;8.00;96.70;;;;;;4999712;28;19921;-70
2022/04/20 06:08:09;;;;;;;;;;;8.10;96.50;;;;;;4999490;28;19914;-71
2022/04/20 06:10:34;;;;;;;;;;;8.30;96.30;;;;;;5031100;23;19926;-66
2022/04/20 06:13:00;;;;;;;;;;;8.30;96.10;;;;;;5017481;28;19922;-66
2022/04/20 06:15:25;;;;;;;;;;;8.30;96.10;;;;;;5019067;28;19920;-66
2022/04/20 06:17:51;;;;;;;;;;;8.50;96.20;;;;;;5019824;28;19959;-66
2022/04/20 06:20:16;;;;;;;;;;;8.60;96.10;;;;;;5002676;28;19910;-66
2022/04/20 06:22:42;;;;;;;;;;;8.70;95.90;;;;;;5000130;28;19910;-67
2022/04/20 06:25:08;;;;;;;;;;;8.80;95.90;;;;;;4999819;28;19996;-67
2022/04/20 06:27:34;;;;;;;;;;;8.90;95.90;;;;;;4999831;28;19918;-67
2022/04/20 06:29:59;;;;;;;;;;;8.90;95.70;;;;;;4998994;28;20028;-66
2022/04/20 06:32:24;;;;;;;;;;;8.70;95.80;;;;;;4999357;28;19910;-66
2022/04/20 06:34:50;;;;;;;;;;;8.60;96.00;;;;;;4999849;28;20339;-66
2022/04/20 06:37:17;;;;;;;;;;;8.60;96.10;;;;;;4999948;28;19920;-66
2022/04/20 06:39:43;;;;;;;;;;;8.70;96.30;;;;;;4999860;28;19976;-66
2022/04/20 06:42:08;;;;;;;;;;;8.80;96.00;;;;;;5000243;28;20421;-66
2022/04/20 06:44:33;;;;;;;;;;;8.70;96.10;;;;;;4999845;28;19914;-66
2022/04/20 06:46:59;;;;;;;;;;;8.60;96.30;;;;;;4998894;28;19918;-66
2022/04/20 06:49:24;;;;;;;;;;;8.50;96.40;;;;;;4999409;28;19996;-67
2022/04/20 07:00:19;;;;;;;;;;;9.20;96.00;;;;;;4939629;28;19911;-67
2022/04/20 07:02:45;;;;;;;;;;;9.30;95.60;;;;;;4990404;28;20009;-66
2022/04/20 07:05:10;;;;;;;;;;;9.50;95.50;;;;;;5002387;28;19921;-66
2022/04/20 07:07:36;;;;;;;;;;;9.60;95.50;;;;;;5003447;28;20354;-66
2022/04/20 07:10:02;;;;;;;;;;;9.70;95.50;;;;;;5003676;28;20322;-67
2022/04/20 07:12:27;;;;;;;;;;;9.80;95.00;;;;;;5003889;28;19913;-67
2022/04/20 07:14:53;;;;;;;;;;;9.80;94.80;;;;;;5002875;28;20304;-66
2022/04/20 07:17:18;;;;;;;;;;;9.80;94.70;;;;;;5003069;28;19914;-66
2022/04/20 07:19:44;;;;;;;;;;;9.70;94.70;;;;;;5003884;28;19940;-66
2022/04/20 07:22:09;;;;;;;;;;;9.70;94.80;;;;;;5002234;28;19930;-66
2022/04/20 07:24:34;;;;;;;;;;;9.80;95.10;;;;;;5003109;28;19917;-67
2022/04/20 07:27:00;;;;;;;;;;;9.80;95.20;;;;;;5003471;28;19916;-67
2022/04/20 07:29:25;;;;;;;;;;;9.90;94.90;;;;;;5002901;28;19924;-67
2022/04/20 07:31:51;;;;;;;;;;;10.10;94.90;;;;;;5002961;28;19914;-67
2022/04/20 07:34:16;;;;;;;;;;;10.20;94.30;;;;;;5003253;28;19913;-67
2022/04/20 07:36:42;;;;;;;;;;;10.20;94.10;;;;;;5001790;28;19917;-66
2022/04/20 07:39:07;;;;;;;;;;;10.20;94.20;;;;;;5002623;28;20070;-66
2022/04/20 07:41:32;;;;;;;;;;;10.20;94.00;;;;;;5002885;28;20383;-67
2022/04/20 07:43:58;;;;;;;;;;;10.10;94.20;;;;;;5003044;28;19910;-66
2022/04/20 07:46:23;;;;;;;;;;;10.00;94.60;;;;;;5003074;28;19914;-66
2022/04/20 07:48:49;;;;;;;;;;;10.00;94.80;;;;;;5002933;28;19960;-66
2022/04/20 07:51:14;;;;;;;;;;;10.10;94.90;;;;;;5003316;28;19993;-66
2022/04/20 07:53:40;;;;;;;;;;;9.90;94.80;;;;;;5001613;28;19921;-66
2022/04/20 07:56:06;;;;;;;;;;;9.80;95.30;;;;;;5003101;28;19917;-67
2022/04/20 07:58:31;;;;;;;;;;;9.70;95.60;;;;;;4998727;28;19945;-66
2022/04/20 08:00:57;;;;;;;;;;;9.70;95.60;;;;;;5002209;28;20268;-67
2022/04/20 08:03:23;;;;;;;;;;;9.70;95.50;;;;;;5002986;28;19932;-66
2022/04/20 08:05:52;;;;;;;;;;;9.80;95.50;;;;;;5002908;28;20255;-66
2022/04/20 08:08:18;;;;;;;;;;;9.90;95.30;;;;;;5003406;28;20329;-66
2022/04/20 08:10:44;;;;;;;;;;;10.10;95.30;;;;;;5002271;28;20004;-66
2022/04/20 08:15:55;;;;;;;;;;;10.50;94.30;;;;;;5001021;28;19920;-67
2022/04/20 08:18:21;;;;;;;;;;;10.70;94.00;;;;;;5001675;28;19957;-67
2022/04/20 08:20:47;;;;;;;;;;;10.80;93.90;;;;;;5002231;28;19917;-67
2022/04/20 08:23:12;;;;;;;;;;;10.90;93.80;;;;;;5002427;28;19913;-67
2022/04/20 08:25:39;;;;;;;;;;;11.00;93.10;;;;;;5001738;28;20135;-67
2022/04/20 08:28:05;;;;;;;;;;;11.00;93.40;;;;;;5002045;28;19913;-67
2022/04/20 08:30:31;;;;;;;;;;;11.10;93.50;;;;;;5001678;28;19921;-67
2022/04/20 08:32:56;;;;;;;;;;;11.10;93.20;;;;;;5000492;28;19961;-67
2022/04/20 08:35:22;;;;;;;;;;;11.30;93.20;;;;;;5001982;28;19925;-67
2022/04/20 08:37:47;;;;;;;;;;;11.40;92.10;;;;;;5002177;28;20355;-67
2022/04/20 08:40:13;;;;;;;;;;;11.40;92.60;;;;;;5001879;28;19909;-67
2022/04/20 08:42:39;;;;;;;;;;;11.40;91.70;;;;;;5001656;28;19921;-66
2022/04/20 08:45:05;;;;;;;;;;;11.40;92.10;;;;;;5001971;28;19910;-67
2022/04/20 08:47:34;;;;;;;;;;;11.30;92.00;;;;;;5001583;28;19968;-67
2022/04/20 08:50:01;;;;;;;;;;;11.20;92.10;;;;;;5000581;28;19917;-67
2022/04/20 08:52:39;;;;;;;;;;;11.00;92.40;;;;;;5001648;28;19913;-67
2022/04/20 08:55:05;;;;;;;;;;;11.00;92.90;;;;;;5001640;28;19995;-67
2022/04/20 08:57:32;;;;;;;;;;;11.10;93.00;;;;;;5001619;28;19983;-67
2022/04/20 08:59:57;;;;;;;;;;;11.20;92.50;;;;;;5001779;28;19918;-67
2022/04/20 09:02:24;;;;;;;;;;;11.30;92.30;;;;;;5001628;28;19920;-67
2022/04/20 09:04:50;;;;;;;;;;;11.40;91.40;;;;;;5001758;28;19913;-67
2022/04/20 09:07:15;;;;;;;;;;;11.30;91.50;;;;;;4999993;28;20389;-66
2022/04/20 09:09:41;;;;;;;;;;;11.40;91.60;;;;;;5001185;28;19940;-66
2022/04/20 09:12:07;;;;;;;;;;;11.50;91.70;;;;;;5001054;28;20398;-66
2022/04/20 09:14:33;;;;;;;;;;;11.60;91.70;;;;;;5000868;28;19940;-67
2022/04/20 09:17:01;;;;;;;;;;;11.90;91.80;;;;;;5000952;28;19914;-66
2022/04/20 09:19:27;;;;;;;;;;;12.00;91.00;;;;;;5001156;28;19949;-66
2022/04/20 09:21:53;;;;;;;;;;;12.10;90.50;;;;;;4999502;28;20298;-67
2022/04/20 09:24:18;;;;;;;;;;;12.20;90.00;;;;;;4999616;28;19910;-66
2022/04/20 09:26:51;;;;;;;;;;;12.20;90.10;;;;;;5000714;28;19910;-66
2022/04/20 09:29:17;;;;;;;;;;;12.30;89.40;;;;;;5000995;28;19939;-66
2022/04/20 09:31:46;;;;;;;;;;;12.30;89.70;;;;;;5000772;28;19921;-67
2022/04/20 09:34:24;;;;;;;;;;;12.40;89.60;;;;;;5000950;28;19955;-67
2022/04/20 09:36:49;;;;;;;;;;;12.40;89.30;;;;;;5000410;28;20005;-66
2022/04/20 09:39:15;;;;;;;;;;;12.60;88.60;;;;;;4999386;28;19975;-66
2022/04/20 09:41:54;;;;;;;;;;;12.50;89.40;;;;;;5000406;28;19913;-66
2022/04/20 09:44:22;;;;;;;;;;;12.60;90.10;;;;;;5000765;28;20482;-66
2022/04/20 09:49:35;;;;;;;;;;;12.70;88.90;;;;;;5000610;28;19984;-66
2022/04/20 09:52:08;;;;;;;;;;;12.90;89.10;;;;;;5000906;28;20433;-66
2022/04/20 09:54:36;;;;;;;;;;;13.00;88.70;;;;;;5000493;28;20037;-66
2022/04/20 09:57:12;;;;;;;;;;;13.10;87.80;;;;;;4998878;28;20280;-66
2022/04/20 09:59:56;;;;;;;;;;;13.10;87.80;;;;;;5000172;28;19914;-66
2022/04/20 10:02:22;;;;;;;;;;;13.20;86.40;;;;;;5000585;28;19921;-67
2022/04/20 10:04:48;;;;;;;;;;;13.20;85.90;;;;;;5000812;28;19910;-66
2022/04/20 10:07:14;;;;;;;;;;;13.20;85.90;;;;;;5000967;28;19909;-66
2022/04/20 10:09:39;;;;;;;;;;;13.20;86.30;;;;;;5000399;28;20008;-66
2022/04/20 10:12:06;;;;;;;;;;;13.30;87.10;;;;;;4999290;28;20000;-66
2022/04/20 10:17:20;;;;;;;;;;;13.50;84.80;;;;;;5000339;28;19959;-66
2022/04/20 10:19:47;;;;;;;;;;;13.70;84.40;;;;;;5000017;28;19940;-66
2022/04/20 10:22:14;;;;;;;;;;;13.80;83.40;;;;;;4999778;28;19959;-66
2022/04/20 10:24:42;;;;;;;;;;;13.80;84.00;;;;;;4999958;28;19910;-67
2022/04/20 10:27:15;;;;;;;;;;;14.10;86.40;;;;;;5000067;28;19914;-66
2022/04/20 10:29:44;;;;;;;;;;;14.40;83.20;;;;;;4998101;28;20343;-67
2022/04/20 10:32:12;;;;;;;;;;;14.50;80.10;;;;;;4999736;28;19917;-67
2022/04/20 10:34:38;;;;;;;;;;;14.50;78.60;;;;;;4999708;28;19936;-67
2022/04/20 10:37:04;;;;;;;;;;;14.50;75.70;;;;;;5000200;28;19961;-66
2022/04/20 10:39:37;;;;;;;;;;;14.50;75.60;;;;;;4999758;28;19956;-67
2022/04/20 10:42:11;;;;;;;;;;;14.50;75.20;;;;;;4997936;28;20375;-66
2022/04/20 10:44:57;;;;;;;;;;;14.50;77.80;;;;;;4999944;28;19918;-67
2022/04/20 10:47:26;;;;;;;;;;;14.40;75.10;;;;;;5000121;28;19917;-67
2022/04/20 10:49:52;;;;;;;;;;;14.30;75.20;;;;;;5000029;28;19968;-67
2022/04/20 10:52:22;;;;;;;;;;;14.40;73.80;;;;;;5000059;28;19913;-67
2022/04/20 10:54:51;;;;;;;;;;;14.40;73.50;;;;;;5000031;28;20278;-67
2022/04/20 10:57:17;;;;;;;;;;;14.40;73.40;;;;;;4998596;28;19917;-67
2022/04/20 10:59:43;;;;;;;;;;;14.30;74.40;;;;;;4999576;28;19913;-67
2022/04/20 11:02:09;;;;;;;;;;;14.50;73.80;;;;;;5000015;28;20028;-67
2022/04/20 11:04:42;;;;;;;;;;;14.70;73.80;;;;;;4999922;28;19909;-67
2022/04/20 11:07:07;;;;;;;;;;;14.90;72.90;;;;;;5000267;28;19909;-67
2022/04/20 11:09:42;;;;;;;;;;;15.20;69.80;;;;;;4999500;28;20440;-67
2022/04/20 11:21:03;;;;;;;;;;;15.80;63.00;;;;;;4984631;28;19960;-67
2022/04/20 11:23:48;;;;;;;;;;;15.80;59.10;;;;;;4999359;28;19952;-68
2022/04/20 11:26:25;;;;;;;;;;;15.60;57.10;;;;;;4999491;28;20234;-67
2022/04/20 11:28:51;;;;;;;;;;;15.50;58.20;;;;;;4999139;28;19909;-69
2022/04/20 11:31:17;;;;;;;;;;;15.50;56.30;;;;;;4999158;28;19932;-66
2022/04/20 11:33:43;;;;;;;;;;;15.40;57.70;;;;;;4998344;28;19910;-69
2022/04/20 11:36:12;;;;;;;;;;;15.50;55.90;;;;;;4999017;28;19980;-68
2022/04/20 11:38:40;;;;;;;;;;;15.50;55.80;;;;;;4999057;28;20247;-67
2022/04/20 11:41:05;;;;;;;;;;;15.70;55.40;;;;;;5000063;28;19999;-69
2022/04/20 11:43:31;;;;;;;;;;;15.80;55.50;;;;;;4999190;28;20385;-67
2022/04/20 11:45:56;;;;;;;;;;;16.20;54.40;;;;;;4999608;28;19937;-67
2022/04/20 11:48:22;;;;;;;;;;;16.40;54.70;;;;;;5001672;28;19917;-66
2022/04/20 11:50:57;;;;;;;;;;;16.40;51.20;;;;;;5001572;28;19997;-66
2022/04/20 11:53:32;;;;;;;;;;;16.30;50.50;;;;;;5002451;28;19999;-66
2022/04/20 11:55:57;;;;;;;;;;;16.30;52.40;;;;;;5002944;28;19953;-66
2022/04/20 11:58:23;;;;;;;;;;;16.60;50.30;;;;;;5003181;28;19945;-66
2022/04/20 12:00:57;;;;;;;;;;;16.80;48.90;;;;;;5002958;28;19945;-66
2022/04/20 12:03:22;;;;;;;;;;;16.70;49.20;;;;;;5003055;28;19964;-66
2022/04/20 12:05:58;;;;;;;;;;;16.50;50.10;;;;;;5002005;28;20618;-67
2022/04/20 12:08:24;;;;;;;;;;;16.50;50.90;;;;;;5001960;28;19917;-65
2022/04/20 12:10:50;;;;;;;;;;;16.50;50.30;;;;;;5003165;28;19913;-67
2022/04/20 12:13:16;;;;;;;;;;;16.50;50.50;;;;;;5002748;28;20426;-66
2022/04/20 12:15:41;;;;;;;;;;;16.50;50.50;;;;;;5002677;28;20016;-66
2022/04/20 12:18:06;;;;;;;;;;;16.50;50.00;;;;;;5002556;28;20005;-67
2022/04/20 12:20:32;;;;;;;;;;;16.30;49.10;;;;;;5001747;28;19924;-67
2022/04/20 12:23:04;;;;;;;;;;;16.30;49.50;;;;;;5002310;28;20354;-67
2022/04/20 12:25:29;;;;;;;;;;;16.40;48.70;;;;;;4999901;28;20355;-67
2022/04/20 12:27:57;;;;;;;;;;;16.40;49.10;;;;;;4999413;28;20378;-67
2022/04/20 12:30:44;;;;;;;;;;;16.50;47.60;;;;;;5001950;28;19985;-66
2022/04/20 12:33:20;;;;;;;;;;;16.50;46.70;;;;;;4998280;28;19914;-67
2022/04/20 12:35:57;;;;;;;;;;;16.60;47.00;;;;;;5001774;28;19917;-66
2022/04/20 12:38:22;;;;;;;;;;;16.50;47.50;;;;;;5001731;28;19996;-66
2022/04/20 12:40:47;;;;;;;;;;;16.50;45.70;;;;;;5001817;28;20385;-67
2022/04/20 12:43:13;;;;;;;;;;;16.20;46.50;;;;;;4999427;28;19913;-66
2022/04/20 12:45:38;;;;;;;;;;;16.00;46.90;;;;;;5001639;28;19948;-66
2022/04/20 12:48:05;;;;;;;;;;;15.90;46.90;;;;;;5001517;28;19914;-67
2022/04/20 12:50:35;;;;;;;;;;;16.00;46.80;;;;;;5001731;28;19921;-67
2022/04/20 12:53:01;;;;;;;;;;;16.10;45.70;;;;;;5001761;28;19910;-66
2022/04/20 12:55:37;;;;;;;;;;;16.10;44.20;;;;;;4998533;28;19921;-67
2022/04/20 13:03:39;;;;;;;;;;;15.70;45.00;;;;;;5002769;28;20598;-66
2022/04/20 13:06:10;;;;;;;;;;;15.80;45.60;;;;;;5001834;28;20415;-66
2022/04/20 13:08:36;;;;;;;;;;;15.90;45.20;;;;;;5001059;28;19921;-67
2022/04/20 13:11:01;;;;;;;;;;;15.90;45.00;;;;;;5000823;28;19924;-66
2022/04/20 13:13:27;;;;;;;;;;;15.80;44.60;;;;;;5000585;28;19920;-66
2022/04/20 13:15:54;;;;;;;;;;;15.70;44.60;;;;;;5001215;28;19917;-66
2022/04/20 13:18:20;;;;;;;;;;;15.70;45.00;;;;;;5000432;28;19952;-66
2022/04/20 13:20:46;;;;;;;;;;;15.80;44.40;;;;;;5000945;28;20353;-66
2022/04/20 13:23:11;;;;;;;;;;;15.70;44.30;;;;;;5000710;28;19920;-66
2022/04/20 13:28:22;;;;;;;;;;;15.80;44.20;;;;;;5000931;28;20389;-66
2022/04/20 13:30:49;;;;;;;;;;;15.70;44.70;;;;;;5001280;28;19913;-66
2022/04/20 13:33:15;;;;;;;;;;;15.50;45.00;;;;;;5000420;28;19916;-67
2022/04/20 13:35:41;;;;;;;;;;;15.40;45.20;;;;;;5000293;28;20007;-66
2022/04/20 13:38:07;;;;;;;;;;;15.40;45.50;;;;;;5000651;28;20326;-66
2022/04/20 13:40:33;;;;;;;;;;;15.40;45.90;;;;;;4998818;28;20191;-66
2022/04/20 13:42:59;;;;;;;;;;;15.30;45.80;;;;;;5000284;28;20374;-66
2022/04/20 13:45:24;;;;;;;;;;;15.30;45.80;;;;;;4999441;28;19964;-67
2022/04/20 13:47:50;;;;;;;;;;;15.40;46.20;;;;;;5000435;28;20306;-66
2022/04/20 13:50:15;;;;;;;;;;;15.50;45.70;;;;;;5000942;28;19961;-66
2022/04/20 13:52:41;;;;;;;;;;;15.40;45.50;;;;;;5000625;28;20309;-66
2022/04/20 13:55:07;;;;;;;;;;;15.40;45.90;;;;;;5001035;28;19955;-66
2022/04/20 13:57:33;;;;;;;;;;;15.30;45.60;;;;;;5000665;28;20153;-66
2022/04/20 13:59:59;;;;;;;;;;;15.30;45.80;;;;;;4998763;28;19984;-66
2022/04/20 14:02:24;;;;;;;;;;;15.30;45.80;;;;;;5000112;28;19914;-67
2022/04/20 14:04:53;;;;;;;;;;;15.50;45.80;;;;;;5000409;28;19921;-67
2022/04/20 14:07:18;;;;;;;;;;;15.60;45.50;;;;;;5000712;28;20333;-66
2022/04/20 14:09:44;;;;;;;;;;;15.70;45.40;;;;;;4999997;28;20370;-66
2022/04/20 14:12:10;;;;;;;;;;;15.60;44.60;;;;;;5000981;28;20375;-66
2022/04/20 14:14:35;;;;;;;;;;;15.40;45.00;;;;;;5000732;28;19913;-66
2022/04/20 14:17:01;;;;;;;;;;;15.20;45.50;;;;;;4999434;28;20008;-66
2022/04/20 14:19:26;;;;;;;;;;;15.10;45.90;;;;;;4999673;28;19914;-67
2022/04/20 14:21:52;;;;;;;;;;;15.30;46.00;;;;;;4999992;28;19913;-66
2022/04/20 14:24:18;;;;;;;;;;;15.20;45.50;;;;;;4999957;28;19988;-67
2022/04/20 14:32:14;;;;;;;;;;;15.20;46.60;;;;;;4997829;28;19920;-66
2022/04/20 14:34:41;;;;;;;;;;;15.20;46.30;;;;;;4999506;28;20367;-67
2022/04/20 14:37:07;;;;;;;;;;;15.30;46.70;;;;;;4999822;28;19968;-67
2022/04/20 14:39:33;;;;;;;;;;;15.30;46.60;;;;;;4999664;28;19953;-67
2022/04/20 14:41:59;;;;;;;;;;;15.30;46.80;;;;;;4999925;28;19914;-68
2022/04/20 14:44:26;;;;;;;;;;;15.30;46.20;;;;;;4999956;28;19909;-66
2022/04/20 14:46:51;;;;;;;;;;;15.30;46.40;;;;;;4999883;28;20367;-66
2022/04/20 14:49:17;;;;;;;;;;;15.30;46.60;;;;;;4998569;28;20454;-66
2022/04/20 14:51:44;;;;;;;;;;;15.30;46.70;;;;;;4999284;28;19909;-66
2022/04/20 14:54:10;;;;;;;;;;;15.40;46.20;;;;;;5000602;28;20222;-66
2022/04/20 14:56:36;;;;;;;;;;;15.40;46.50;;;;;;4999782;28;19975;-66
2022/04/20 14:59:01;;;;;;;;;;;15.40;46.70;;;;;;4999982;28;20370;-66
2022/04/20 15:01:27;;;;;;;;;;;15.50;46.20;;;;;;4999597;28;19918;-67
2022/04/20 15:03:52;;;;;;;;;;;15.40;46.10;;;;;;4999878;28;19910;-66
2022/04/20 15:06:18;;;;;;;;;;;15.30;46.20;;;;;;4997854;28;19960;-66
2022/04/20 15:08:44;;;;;;;;;;;15.20;46.20;;;;;;4999510;28;19913;-67